Time;durP1;ratioP1;P1;durP2;ratioP2;P2;SDS_P1;SDS_P2;PMS_P1;PMS_P2;Temp;Humidity;BMP_temperature;BMP_pressure;BME280_temperature;BME280_humidity;BME280_pressure;Samples;Min_cycle;Max_cycle;Signal;HPM_P1;HPM_P2
2023/12/07 00:00:09;;;;;;;15.80;9.20;;;6.00;99.20;;;;;;4982383;28;21179;-33
2023/12/07 00:02:35;;;;;;;10.80;9.35;;;6.10;99.20;;;;;;5001962;28;20432;-36
2023/12/07 00:05:01;;;;;;;14.73;9.60;;;6.00;99.20;;;;;;5004131;28;20213;-35
2023/12/07 00:07:27;;;;;;;14.05;10.35;;;6.00;99.10;;;;;;4993283;28;20443;-37
2023/12/07 00:09:53;;;;;;;13.45;10.02;;;6.00;99.10;;;;;;4991531;28;20371;-33
2023/12/07 00:12:20;;;;;;;10.32;8.27;;;6.00;99.10;;;;;;4976770;28;20189;-37
2023/12/07 00:14:46;;;;;;;13.10;9.88;;;6.00;99.10;;;;;;4987913;28;20210;-38
2023/12/07 00:17:12;;;;;;;13.55;9.40;;;6.00;99.10;;;;;;4995226;28;20272;-37
2023/12/07 00:19:40;;;;;;;13.15;9.43;;;6.00;99.10;;;;;;5005874;28;20209;-35
2023/12/07 00:22:06;;;;;;;11.93;8.50;;;6.00;99.10;;;;;;4968368;28;20670;-35
2023/12/07 00:24:33;;;;;;;11.87;9.47;;;6.00;99.10;;;;;;5008352;28;20440;-37
2023/12/07 00:26:59;;;;;;;14.75;9.50;;;6.00;99.10;;;;;;4978305;28;20435;-34
2023/12/07 00:29:26;;;;;;;11.57;9.23;;;6.00;99.10;;;;;;5016818;28;20219;-33
2023/12/07 00:31:52;;;;;;;11.87;10.00;;;6.00;99.10;;;;;;4995579;28;20449;-36
2023/12/07 00:34:23;;;;;;;12.90;9.60;;;6.00;99.10;;;;;;5009567;28;20433;-36
2023/12/07 00:36:49;;;;;;;14.82;9.75;;;6.00;99.00;;;;;;5012301;28;20436;-34
2023/12/07 00:39:16;;;;;;;11.80;10.30;;;6.00;99.10;;;;;;5008459;28;20209;-32
2023/12/07 00:41:46;;;;;;;12.13;9.93;;;5.90;99.00;;;;;;5002622;28;20285;-32
2023/12/07 00:44:15;;;;;;;11.80;10.40;;;5.90;99.00;;;;;;4987900;28;20209;-36
2023/12/07 00:46:43;;;;;;;12.32;8.85;;;5.90;99.00;;;;;;5005551;28;20272;-34
2023/12/07 00:49:09;;;;;;;12.20;9.30;;;5.90;99.00;;;;;;4990844;28;20826;-31
2023/12/07 00:51:35;;;;;;;13.50;9.10;;;5.90;99.00;;;;;;4984633;28;20464;-36
2023/12/07 00:54:01;;;;;;;13.00;9.63;;;5.90;99.00;;;;;;4982324;28;20222;-38
2023/12/07 00:56:27;;;;;;;13.10;10.10;;;5.90;99.00;;;;;;5015251;28;20430;-37
2023/12/07 00:58:56;;;;;;;11.30;9.45;;;5.90;98.90;;;;;;5012271;28;20846;-32
2023/12/07 01:01:30;;;;;;;14.23;9.27;;;5.90;99.00;;;;;;5013977;28;20202;-40
2023/12/07 01:03:56;;;;;;;11.00;9.50;;;5.90;99.00;;;;;;5002712;28;20236;-33
2023/12/07 01:06:24;;;;;;;10.13;8.88;;;5.90;99.00;;;;;;5009203;28;20185;-35
2023/12/07 01:08:53;;;;;;;13.30;9.80;;;5.90;99.00;;;;;;5012436;28;20217;-36
2023/12/07 01:11:19;;;;;;;11.45;9.05;;;5.90;99.00;;;;;;4985083;28;21089;-32
2023/12/07 01:13:45;;;;;;;11.38;9.57;;;5.90;98.90;;;;;;4991007;28;20206;-34
2023/12/07 01:16:13;;;;;;;13.02;8.93;;;5.90;98.90;;;;;;4988444;28;20194;-35
2023/12/07 01:18:39;;;;;;;10.90;9.05;;;5.90;98.90;;;;;;5008629;28;20731;-37
2023/12/07 01:21:08;;;;;;;11.57;9.40;;;5.90;98.90;;;;;;4976682;28;20209;-36
2023/12/07 01:23:34;;;;;;;14.90;9.85;;;5.80;98.90;;;;;;4984077;28;20213;-31
2023/12/07 01:26:02;;;;;;;12.95;10.10;;;5.90;98.90;;;;;;4958302;28;20198;-33
2023/12/07 01:28:28;;;;;;;12.10;9.87;;;5.80;98.90;;;;;;4991698;28;20385;-31
2023/12/07 01:30:54;;;;;;;13.68;10.52;;;5.80;98.90;;;;;;5002302;28;20840;-35
2023/12/07 01:33:23;;;;;;;14.57;10.15;;;5.90;98.90;;;;;;5001664;28;20239;-31
2023/12/07 01:35:49;;;;;;;11.40;10.00;;;5.80;98.90;;;;;;5002873;28;20267;-32
2023/12/07 01:38:17;;;;;;;14.13;9.38;;;5.80;98.90;;;;;;5005237;28;20657;-36
2023/12/07 01:40:46;;;;;;;10.20;9.13;;;5.80;98.90;;;;;;4991884;28;20182;-33
2023/12/07 01:43:12;;;;;;;10.53;9.20;;;5.80;98.90;;;;;;4986415;28;20885;-39
2023/12/07 01:45:38;;;;;;;12.00;9.23;;;5.80;98.90;;;;;;4989796;28;20488;-35
2023/12/07 01:48:04;;;;;;;15.00;9.63;;;5.80;98.90;;;;;;4977967;28;20312;-30
2023/12/07 01:50:30;;;;;;;11.85;10.20;;;5.80;98.80;;;;;;4982151;28;20418;-32
2023/12/07 01:53:03;;;;;;;13.27;9.70;;;5.80;98.80;;;;;;4990148;28;20198;-37
2023/12/07 01:55:31;;;;;;;12.82;9.27;;;5.80;98.80;;;;;;4982812;28;20204;-37
2023/12/07 01:57:58;;;;;;;11.32;9.00;;;5.80;98.80;;;;;;4973933;28;20189;-36
2023/12/07 02:00:27;;;;;;;11.48;9.60;;;5.80;98.80;;;;;;4973580;28;20194;-35
2023/12/07 02:02:53;;;;;;;13.90;10.30;;;5.70;98.80;;;;;;4998210;28;20189;-37
2023/12/07 02:05:20;;;;;;;12.97;9.77;;;5.80;98.80;;;;;;5009668;28;20527;-36
2023/12/07 02:07:46;;;;;;;12.20;9.48;;;5.70;98.70;;;;;;4986194;28;21247;-36
2023/12/07 02:10:15;;;;;;;10.45;9.07;;;5.70;98.70;;;;;;4992534;28;20193;-34
2023/12/07 02:12:41;;;;;;;11.10;9.63;;;5.70;98.70;;;;;;4969873;28;20283;-32
2023/12/07 02:15:08;;;;;;;10.50;9.40;;;5.70;98.70;;;;;;5002238;28;20451;-33
2023/12/07 02:17:40;;;;;;;11.00;9.80;;;5.70;98.70;;;;;;5005957;28;20745;-39
2023/12/07 02:20:14;;;;;;;11.15;9.68;;;5.70;98.70;;;;;;4983994;28;20652;-36
2023/12/07 02:22:59;;;;;;;10.27;8.48;;;5.70;98.70;;;;;;5002223;28;21009;-33
2023/12/07 02:25:53;;;;;;;10.67;8.77;;;5.70;98.70;;;;;;4985483;28;20553;-31
2023/12/07 02:28:19;;;;;;;11.55;9.10;;;5.70;98.60;;;;;;5000966;28;20484;-37
2023/12/07 02:30:45;;;;;;;12.27;9.70;;;5.70;98.70;;;;;;5002926;28;20186;-35
2023/12/07 02:33:12;;;;;;;10.73;9.20;;;5.70;98.70;;;;;;5012251;28;20281;-35
2023/12/07 02:35:40;;;;;;;10.73;8.63;;;5.70;99.00;;;;;;5004659;28;20256;-31
2023/12/07 02:38:11;;;;;;;10.20;9.18;;;5.70;98.70;;;;;;4979402;28;20625;-34
2023/12/07 02:40:42;;;;;;;12.30;10.27;;;5.70;98.70;;;;;;5003268;28;20589;-35
2023/12/07 02:43:09;;;;;;;10.60;9.35;;;5.70;98.70;;;;;;4989648;28;20186;-35
2023/12/07 02:45:37;;;;;;;10.80;8.98;;;5.70;98.70;;;;;;4990277;28;20271;-39
2023/12/07 02:48:03;;;;;;;12.40;9.73;;;5.70;98.70;;;;;;5004648;28;20918;-33
2023/12/07 02:50:30;;;;;;;12.80;9.27;;;5.70;98.70;;;;;;5015609;28;20617;-37
2023/12/07 02:52:56;;;;;;;9.70;8.70;;;5.70;98.80;;;;;;5005534;28;20328;-38
2023/12/07 02:55:22;;;;;;;12.20;9.20;;;5.70;98.80;;;;;;4982317;28;20637;-35
2023/12/07 02:57:49;;;;;;;10.70;9.60;;;5.70;98.80;;;;;;4989625;28;20331;-35
2023/12/07 03:00:15;;;;;;;12.38;9.32;;;5.70;98.80;;;;;;4993372;28;20416;-34
2023/12/07 03:02:42;;;;;;;13.75;9.25;;;5.70;98.80;;;;;;4983064;28;20190;-37
2023/12/07 03:05:09;;;;;;;11.35;10.20;;;5.60;98.80;;;;;;4987545;28;20271;-36
2023/12/07 03:07:37;;;;;;;10.70;9.60;;;5.60;98.80;;;;;;4958293;28;20232;-36
2023/12/07 03:10:03;;;;;;;11.87;9.90;;;5.60;98.80;;;;;;4989784;28;20292;-34
2023/12/07 03:12:29;;;;;;;11.70;9.93;;;5.60;98.80;;;;;;5000365;28;20443;-32
2023/12/07 03:14:57;;;;;;;11.20;9.60;;;5.60;98.80;;;;;;4977702;28;20232;-37
2023/12/07 03:17:28;;;;;;;14.00;10.40;;;5.60;98.90;;;;;;5005042;28;20811;-32
2023/12/07 03:19:57;;;;;;;12.93;9.70;;;5.60;98.80;;;;;;5002317;28;20193;-37
2023/12/07 03:22:25;;;;;;;13.82;10.88;;;5.60;98.90;;;;;;4990574;28;20191;-38
2023/12/07 03:24:52;;;;;;;12.35;9.85;;;5.60;98.90;;;;;;5007128;28;20225;-33
2023/12/07 03:27:21;;;;;;;11.48;9.85;;;5.60;98.90;;;;;;5001668;28;20280;-30
2023/12/07 03:29:47;;;;;;;10.60;9.13;;;5.60;99.00;;;;;;4990421;28;20271;-30
2023/12/07 03:32:13;;;;;;;11.87;10.50;;;5.60;99.00;;;;;;4981150;28;20457;-36
2023/12/07 03:34:39;;;;;;;14.77;10.57;;;5.60;98.90;;;;;;5006782;28;21009;-38
2023/12/07 03:37:06;;;;;;;13.63;10.07;;;5.60;99.00;;;;;;5002880;28;20638;-36
2023/12/07 03:39:37;;;;;;;12.82;9.82;;;5.60;99.00;;;;;;4985206;28;20243;-33
2023/12/07 03:42:03;;;;;;;11.63;9.85;;;5.60;99.00;;;;;;4990108;28;20280;-36
2023/12/07 03:44:30;;;;;;;12.40;9.65;;;5.60;99.00;;;;;;4987996;28;20211;-37
2023/12/07 03:46:56;;;;;;;11.40;10.20;;;5.60;99.00;;;;;;4991862;28;20189;-38
2023/12/07 03:49:22;;;;;;;10.70;9.60;;;5.60;99.00;;;;;;4998321;28;20227;-34
2023/12/07 03:51:48;;;;;;;10.70;9.60;;;5.60;99.00;;;;;;4992032;28;21246;-37
2023/12/07 03:54:14;;;;;;;12.45;10.00;;;5.60;99.10;;;;;;5004755;28;20198;-37
2023/12/07 03:56:40;;;;;;;11.97;9.70;;;5.60;99.10;;;;;;4988797;28;20263;-33
2023/12/07 03:59:06;;;;;;;14.75;9.50;;;5.60;99.10;;;;;;4979365;28;20243;-36
2023/12/07 04:01:34;;;;;;;11.23;9.50;;;5.60;99.10;;;;;;4984277;28;20707;-38
2023/12/07 04:04:04;;;;;;;15.32;10.15;;;5.60;99.10;;;;;;5008165;28;20448;-32
2023/12/07 04:06:32;;;;;;;12.95;9.48;;;5.60;99.10;;;;;;4997765;28;20185;-33
2023/12/07 04:08:58;;;;;;;13.23;9.55;;;5.60;99.10;;;;;;4998308;28;20220;-38
2023/12/07 04:11:24;;;;;;;10.93;9.70;;;5.60;99.10;;;;;;5047036;22;20185;-25
2023/12/07 04:13:53;;;;;;;14.47;11.10;;;5.60;99.20;;;;;;5016810;28;20218;-27
2023/12/07 04:16:21;;;;;;;13.02;9.98;;;5.60;99.20;;;;;;4999835;28;20446;-27
2023/12/07 04:18:50;;;;;;;12.52;10.15;;;5.60;99.20;;;;;;5020708;28;20185;-26
2023/12/07 04:21:16;;;;;;;11.60;10.00;;;5.60;99.20;;;;;;5014295;28;20512;-27
2023/12/07 04:23:47;;;;;;;12.70;10.45;;;5.60;99.20;;;;;;5020367;28;20459;-26
2023/12/07 04:26:13;;;;;;;13.87;10.43;;;5.60;99.20;;;;;;5015198;28;20201;-27
2023/12/07 04:28:42;;;;;;;13.40;9.55;;;5.60;99.20;;;;;;5001997;28;20480;-27
2023/12/07 04:31:08;;;;;;;11.83;10.00;;;5.60;99.20;;;;;;5021425;28;20193;-27
2023/12/07 04:33:34;;;;;;;12.67;10.30;;;5.60;99.30;;;;;;5020748;28;20432;-26
2023/12/07 04:36:03;;;;;;;12.82;9.73;;;5.50;99.20;;;;;;4996740;28;20445;-26
2023/12/07 04:38:29;;;;;;;13.67;11.07;;;5.60;99.60;;;;;;5003352;28;20203;-26
2023/12/07 04:40:55;;;;;;;11.27;9.53;;;5.60;99.30;;;;;;4978627;28;20448;-26
2023/12/07 04:43:21;;;;;;;14.50;10.80;;;5.60;99.30;;;;;;5020150;28;20451;-25
2023/12/07 04:45:49;;;;;;;10.90;9.55;;;5.60;99.30;;;;;;5014425;28;20435;-26
2023/12/07 04:48:16;;;;;;;12.97;9.53;;;5.60;99.30;;;;;;4986429;28;20307;-27
2023/12/07 04:50:46;;;;;;;14.57;9.35;;;5.60;99.30;;;;;;5021360;28;20506;-25
2023/12/07 04:53:12;;;;;;;14.10;9.27;;;5.60;99.30;;;;;;5021422;28;20224;-25
2023/12/07 04:55:38;;;;;;;13.60;10.13;;;5.50;99.30;;;;;;5017987;28;20236;-26
2023/12/07 04:58:06;;;;;;;13.05;9.82;;;5.60;99.30;;;;;;5009136;28;20931;-26
2023/12/07 05:00:33;;;;;;;12.53;10.13;;;5.50;99.30;;;;;;5020125;28;20197;-27
2023/12/07 05:03:03;;;;;;;12.00;10.13;;;5.60;99.40;;;;;;5019328;28;20862;-27
2023/12/07 05:05:29;;;;;;;11.50;9.47;;;5.50;99.30;;;;;;5012051;28;20454;-25
2023/12/07 05:08:00;;;;;;;11.00;9.52;;;5.50;99.30;;;;;;5018738;28;20918;-26
2023/12/07 05:10:28;;;;;;;12.70;9.40;;;5.60;99.40;;;;;;5021464;28;20186;-26
2023/12/07 05:12:56;;;;;;;17.92;10.40;;;5.60;99.40;;;;;;5000323;28;20194;-26
2023/12/07 05:15:22;;;;;;;14.70;11.70;;;5.50;99.40;;;;;;5018105;28;20296;-26
2023/12/07 05:17:48;;;;;;;13.00;10.07;;;5.50;99.40;;;;;;4992887;28;20181;-25
2023/12/07 05:20:15;;;;;;;12.77;9.70;;;5.50;99.40;;;;;;5001470;28;20189;-26
2023/12/07 05:22:41;;;;;;;13.23;10.52;;;5.50;99.40;;;;;;5020188;28;20280;-27
2023/12/07 05:25:09;;;;;;;12.48;9.52;;;5.50;99.40;;;;;;5015306;28;20241;-25
2023/12/07 05:27:35;;;;;;;11.60;9.50;;;5.50;99.40;;;;;;4997096;28;20331;-26
2023/12/07 05:30:01;;;;;;;12.40;10.00;;;5.50;99.40;;;;;;5020757;28;20214;-26
2023/12/07 05:32:30;;;;;;;14.57;10.48;;;5.60;99.50;;;;;;5020814;28;20474;-26
2023/12/07 05:34:56;;;;;;;13.17;9.67;;;5.60;99.50;;;;;;5019079;28;20773;-26
2023/12/07 05:37:26;;;;;;;16.60;10.35;;;5.60;99.50;;;;;;5020226;28;20237;-26
2023/12/07 05:39:52;;;;;;;12.15;9.65;;;5.60;99.50;;;;;;5012385;28;20752;-25
2023/12/07 05:42:20;;;;;;;12.27;10.00;;;5.60;99.50;;;;;;5015935;28;20192;-26
2023/12/07 05:44:46;;;;;;;14.98;9.38;;;5.60;99.50;;;;;;5001042;28;20558;-26
2023/12/07 05:47:14;;;;;;;11.50;9.57;;;5.50;99.50;;;;;;5015693;28;20288;-25
2023/12/07 05:49:40;;;;;;;11.70;9.38;;;5.50;99.50;;;;;;5010710;28;20514;-26
2023/12/07 05:52:11;;;;;;;13.93;10.40;;;5.50;99.40;;;;;;5018110;28;20220;-25
2023/12/07 05:54:38;;;;;;;11.00;8.88;;;5.50;99.40;;;;;;4981345;28;20237;-27
2023/12/07 05:57:10;;;;;;;13.73;10.55;;;5.50;99.50;;;;;;5007630;28;20212;-27
2023/12/07 05:59:39;;;;;;;11.33;9.20;;;5.50;99.40;;;;;;4983563;28;20960;-26
2023/12/07 06:02:14;;;;;;;13.25;9.77;;;5.60;99.50;;;;;;4997404;28;20440;-26
2023/12/07 06:04:41;;;;;;;13.23;10.57;;;5.50;99.50;;;;;;5019067;28;20258;-25
2023/12/07 06:07:12;;;;;;;11.10;9.00;;;5.50;99.50;;;;;;4995181;28;20592;-27
2023/12/07 06:09:41;;;;;;;11.55;9.63;;;5.50;99.80;;;;;;5018913;28;20939;-25
2023/12/07 06:12:09;;;;;;;13.40;9.77;;;5.50;99.50;;;;;;5007878;28;20189;-27
2023/12/07 06:14:38;;;;;;;12.35;9.43;;;5.50;99.50;;;;;;4989773;28;20255;-26
2023/12/07 06:17:04;;;;;;;10.35;8.80;;;5.50;99.50;;;;;;4980053;28;20248;-26
2023/12/07 06:19:31;;;;;;;10.90;9.50;;;5.50;99.50;;;;;;5020513;28;20204;-26
2023/12/07 06:21:57;;;;;;;12.23;9.80;;;5.60;99.60;;;;;;4986005;28;20950;-26
2023/12/07 06:24:26;;;;;;;13.77;9.43;;;5.50;99.50;;;;;;5002212;28;20440;-25
2023/12/07 06:26:52;;;;;;;10.77;9.00;;;5.50;99.60;;;;;;5015406;28;21097;-27
2023/12/07 06:29:20;;;;;;;12.70;8.83;;;5.50;99.60;;;;;;5018680;28;20471;-27
2023/12/07 06:31:46;;;;;;;13.45;10.38;;;5.60;99.50;;;;;;4984367;28;21101;-26
2023/12/07 06:34:12;;;;;;;11.10;9.40;;;5.60;99.50;;;;;;4990017;28;20217;-25
2023/12/07 06:36:43;;;;;;;12.10;9.63;;;5.50;99.50;;;;;;4995800;28;20466;-25
2023/12/07 06:39:10;;;;;;;10.73;9.00;;;5.60;99.60;;;;;;5009636;28;20185;-26
2023/12/07 06:41:36;;;;;;;11.35;8.75;;;5.60;99.50;;;;;;5018299;28;20212;-27
2023/12/07 06:44:02;;;;;;;13.80;9.40;;;5.50;99.50;;;;;;5001207;28;20788;-26
2023/12/07 06:46:32;;;;;;;10.20;9.10;;;5.60;99.60;;;;;;4996444;28;20197;-25
2023/12/07 06:48:58;;;;;;;13.23;10.02;;;5.50;99.60;;;;;;5016593;28;20879;-25
2023/12/07 06:51:27;;;;;;;12.90;9.75;;;5.50;99.50;;;;;;4998362;28;20223;-26
2023/12/07 06:53:56;;;;;;;56.13;10.80;;;5.60;99.60;;;;;;5008299;28;20211;-26
2023/12/07 06:56:25;;;;;;;10.88;8.88;;;5.60;99.50;;;;;;5019033;28;20185;-26
2023/12/07 06:58:56;;;;;;;13.10;10.75;;;5.60;99.40;;;;;;4998441;28;20250;-26
2023/12/07 07:01:24;;;;;;;11.48;8.82;;;5.60;99.40;;;;;;5015075;28;20208;-27
2023/12/07 07:03:52;;;;;;;13.77;9.05;;;5.60;99.40;;;;;;4977576;28;20230;-27
2023/12/07 07:06:18;;;;;;;11.60;9.73;;;5.60;99.50;;;;;;5000655;28;20934;-26
2023/12/07 07:08:44;;;;;;;11.90;9.73;;;5.60;99.50;;;;;;5013199;28;20487;-26
2023/12/07 07:11:14;;;;;;;13.23;9.43;;;5.60;99.50;;;;;;5000396;28;20282;-26
2023/12/07 07:13:40;;;;;;;14.25;10.05;;;5.50;99.50;;;;;;5017679;28;20216;-26
2023/12/07 07:16:07;;;;;;;11.27;9.18;;;5.60;99.50;;;;;;4991491;28;20202;-31
2023/12/07 07:18:35;;;;;;;12.60;9.95;;;5.50;99.50;;;;;;5014202;28;20213;-26
2023/12/07 07:21:04;;;;;;;12.23;9.98;;;5.50;99.50;;;;;;4987065;28;20921;-26
2023/12/07 07:23:30;;;;;;;15.07;9.50;;;5.50;99.50;;;;;;5020286;28;20287;-26
2023/12/07 07:25:56;;;;;;;11.35;9.38;;;5.50;99.50;;;;;;5015451;28;20213;-26
2023/12/07 07:28:22;;;;;;;15.82;9.43;;;5.50;99.50;;;;;;5020176;28;20213;-26
2023/12/07 07:30:51;;;;;;;14.37;9.67;;;5.50;99.50;;;;;;5010366;28;20842;-27
2023/12/07 07:33:17;;;;;;;11.65;9.50;;;5.50;99.50;;;;;;5007211;28;21054;-27
2023/12/07 07:35:43;;;;;;;13.30;9.97;;;5.50;99.50;;;;;;5015906;28;20213;-26
2023/12/07 07:38:11;;;;;;;13.60;10.10;;;5.50;99.50;;;;;;4997204;28;20458;-27
2023/12/07 07:40:37;;;;;;;12.10;9.18;;;5.50;99.50;;;;;;5002812;28;20185;-26
2023/12/07 07:43:03;;;;;;;11.77;9.30;;;5.50;99.50;;;;;;5020705;28;20931;-26
2023/12/07 07:45:29;;;;;;;10.38;9.05;;;5.50;99.50;;;;;;5002363;28;20449;-26
2023/12/07 07:47:55;;;;;;;10.93;8.40;;;5.50;99.50;;;;;;5019466;28;20249;-26
2023/12/07 07:50:22;;;;;;;14.27;10.60;;;5.50;99.50;;;;;;4999596;28;20454;-27
2023/12/07 07:52:48;;;;;;;15.30;9.50;;;5.50;99.50;;;;;;5019323;28;20185;-27
2023/12/07 07:55:15;;;;;;;12.83;9.50;;;5.50;99.50;;;;;;4977099;28;20586;-27
2023/12/07 07:57:41;;;;;;;12.93;9.82;;;5.50;99.50;;;;;;4987273;28;20547;-26
2023/12/07 08:00:09;;;;;;;11.93;9.18;;;5.50;99.50;;;;;;4998249;28;20197;-26
2023/12/07 08:02:38;;;;;;;13.10;10.67;;;5.50;99.50;;;;;;5003424;28;20189;-27
2023/12/07 08:05:05;;;;;;;12.95;9.52;;;5.50;99.50;;;;;;4997218;28;20471;-26
2023/12/07 08:07:32;;;;;;;13.02;9.90;;;5.50;99.50;;;;;;4994464;28;20205;-26
2023/12/07 08:09:58;;;;;;;14.17;10.03;;;5.50;99.50;;;;;;5021149;28;20806;-26
2023/12/07 08:12:24;;;;;;;10.85;9.57;;;5.50;99.50;;;;;;5020109;28;20462;-27
2023/12/07 08:14:50;;;;;;;11.60;8.70;;;5.50;99.50;;;;;;4997413;28;20205;-26
2023/12/07 08:17:17;;;;;;;10.75;8.88;;;5.50;99.50;;;;;;5021326;28;20419;-26
2023/12/07 08:19:43;;;;;;;12.95;9.30;;;5.50;99.50;;;;;;5019080;28;20719;-27
2023/12/07 08:22:10;;;;;;;10.40;9.13;;;5.50;99.50;;;;;;5003585;28;20833;-26
2023/12/07 08:24:38;;;;;;;11.75;9.30;;;5.50;99.50;;;;;;5000465;28;20451;-27
2023/12/07 08:27:04;;;;;;;10.33;8.70;;;5.50;99.50;;;;;;4986261;28;20873;-26
2023/12/07 08:29:33;;;;;;;10.15;8.02;;;5.50;99.50;;;;;;4986420;28;21097;-26
2023/12/07 08:32:00;;;;;;;13.85;9.18;;;5.50;99.50;;;;;;5002614;28;20307;-27
2023/12/07 08:34:26;;;;;;;10.32;8.52;;;5.50;99.50;;;;;;5011987;28;20205;-26
2023/12/07 08:36:55;;;;;;;13.20;8.25;;;5.50;99.50;;;;;;5013233;28;20193;-27
2023/12/07 08:39:22;;;;;;;13.00;8.48;;;5.50;99.50;;;;;;4987103;28;20224;-27
2023/12/07 08:41:48;;;;;;;10.48;8.35;;;5.50;99.50;;;;;;5002113;28;20277;-27
2023/12/07 08:44:17;;;;;;;11.75;8.32;;;5.40;99.50;;;;;;5002568;28;20208;-26
2023/12/07 08:46:44;;;;;;;11.40;8.65;;;5.50;99.60;;;;;;5001125;28;20240;-26
2023/12/07 08:49:11;;;;;;;11.13;8.35;;;5.50;99.60;;;;;;5000424;28;20707;-26
2023/12/07 08:51:37;;;;;;;11.75;8.15;;;5.50;99.60;;;;;;4985314;28;20805;-26
2023/12/07 08:54:05;;;;;;;9.90;8.67;;;5.50;99.60;;;;;;5019950;28;20304;-26
2023/12/07 08:56:31;;;;;;;11.13;9.10;;;5.50;99.70;;;;;;4968615;28;20446;-26
2023/12/07 08:58:57;;;;;;;12.87;8.60;;;5.50;99.70;;;;;;5020028;28;20650;-27
2023/12/07 09:01:23;;;;;;;10.43;8.73;;;5.50;99.90;;;;;;4969544;28;20457;-26
2023/12/07 09:03:49;;;;;;;9.85;7.60;;;5.50;99.70;;;;;;5016493;28;20267;-26
2023/12/07 09:06:15;;;;;;;10.68;9.35;;;5.50;99.60;;;;;;4999990;28;20227;-26
2023/12/07 09:08:41;;;;;;;8.73;7.83;;;5.50;99.60;;;;;;5005299;28;20926;-26
2023/12/07 09:11:08;;;;;;;11.40;8.50;;;5.50;99.60;;;;;;4971304;28;20441;-27
2023/12/07 09:13:34;;;;;;;9.82;8.80;;;5.50;99.60;;;;;;5016832;28;20244;-26
2023/12/07 09:16:03;;;;;;;12.97;7.60;;;5.50;99.70;;;;;;5002315;28;20186;-26
2023/12/07 09:18:29;;;;;;;11.88;8.55;;;5.50;99.90;;;;;;5007845;28;20425;-26
2023/12/07 09:20:55;;;;;;;9.32;8.32;;;5.50;99.70;;;;;;5019635;28;20189;-26
2023/12/07 09:23:22;;;;;;;9.85;8.85;;;5.50;99.70;;;;;;4996196;28;20204;-26
2023/12/07 09:25:48;;;;;;;11.02;9.25;;;5.50;99.70;;;;;;5001678;28;20215;-32
2023/12/07 09:28:14;;;;;;;11.33;9.00;;;5.50;99.70;;;;;;5001702;28;20393;-26
2023/12/07 09:30:40;;;;;;;16.23;8.93;;;5.50;99.70;;;;;;4984696;28;20432;-26
2023/12/07 09:33:06;;;;;;;11.47;8.47;;;5.50;99.80;;;;;;5007802;22;20609;-28
2023/12/07 09:35:34;;;;;;;9.50;7.88;;;5.50;99.70;;;;;;4986488;28;20448;-28
2023/12/07 09:38:02;;;;;;;10.55;8.20;;;5.50;99.70;;;;;;4981403;28;20195;-29
2023/12/07 09:40:29;;;;;;;11.57;8.95;;;5.50;99.70;;;;;;4983700;28;20257;-29
2023/12/07 09:42:55;;;;;;;11.00;7.55;;;5.50;99.70;;;;;;4981587;28;20292;-28
2023/12/07 09:45:22;;;;;;;10.35;8.77;;;5.50;99.80;;;;;;4981054;28;20202;-29
2023/12/07 09:47:52;;;;;;;11.70;8.50;;;5.50;99.80;;;;;;4980527;28;20261;-29
2023/12/07 09:50:23;;;;;;;10.13;8.27;;;5.50;99.70;;;;;;4962512;28;20738;-28
2023/12/07 09:52:52;;;;;;;11.48;8.55;;;5.50;99.70;;;;;;4980403;28;20190;-28
2023/12/07 09:55:18;;;;;;;9.60;8.00;;;5.50;99.70;;;;;;4962372;28;20218;-28
2023/12/07 09:57:46;;;;;;;11.63;8.17;;;5.50;99.80;;;;;;4980263;28;20779;-28
2023/12/07 10:00:15;;;;;;;11.27;8.27;;;5.50;99.80;;;;;;4946060;28;20459;-29
2023/12/07 10:02:42;;;;;;;14.00;9.07;;;5.50;99.80;;;;;;4979820;28;20191;-28
2023/12/07 10:05:10;;;;;;;10.38;8.63;;;5.50;99.80;;;;;;4979637;28;20255;-28
2023/12/07 10:07:41;;;;;;;9.57;8.57;;;5.50;99.80;;;;;;4932909;28;20257;-28
2023/12/07 10:10:09;;;;;;;10.15;8.02;;;5.50;99.80;;;;;;4956090;28;20722;-29
2023/12/07 10:12:46;;;;;;;10.48;9.10;;;5.60;99.90;;;;;;4962042;28;20305;-29
2023/12/07 10:15:13;;;;;;;11.70;8.75;;;5.50;99.80;;;;;;4946431;28;20293;-29
2023/12/07 10:17:58;;;;;;;9.63;8.47;;;5.50;99.80;;;;;;4980124;28;20190;-28
2023/12/07 10:20:25;;;;;;;8.75;7.85;;;5.60;99.80;;;;;;4961544;28;20908;-28
2023/12/07 10:23:04;;;;;;;10.68;7.63;;;5.60;99.90;;;;;;4961589;28;20284;-28
2023/12/07 10:25:32;;;;;;;9.03;7.93;;;5.60;99.90;;;;;;4960959;28;20209;-29
2023/12/07 10:27:58;;;;;;;10.57;8.52;;;5.60;99.80;;;;;;4962612;28;20433;-29
2023/12/07 10:30:26;;;;;;;11.63;9.47;;;5.50;99.90;;;;;;4961916;28;20218;-28
2023/12/07 10:32:53;;;;;;;10.82;7.47;;;5.50;99.90;;;;;;4979705;28;20449;-29
2023/12/07 10:35:20;;;;;;;12.40;8.63;;;5.60;99.90;;;;;;4978797;28;20229;-28
2023/12/07 10:37:46;;;;;;;12.37;9.10;;;5.60;99.80;;;;;;4961638;28;20194;-29
2023/12/07 10:40:15;;;;;;;12.98;8.52;;;5.60;99.90;;;;;;4979098;28;20434;-29
2023/12/07 10:42:45;;;;;;;9.07;7.67;;;5.60;99.90;;;;;;4944595;28;20209;-28
2023/12/07 10:45:15;;;;;;;10.82;8.18;;;5.60;99.90;;;;;;4974114;28;21102;-28
2023/12/07 10:47:43;;;;;;;10.75;9.07;;;5.60;99.90;;;;;;4946607;28;20717;-28
2023/12/07 10:50:16;;;;;;;10.20;7.88;;;5.60;99.90;;;;;;4979073;28;20218;-28
2023/12/07 10:52:54;;;;;;;10.07;8.53;;;5.60;99.80;;;;;;4982511;28;20190;-28
2023/12/07 10:55:23;;;;;;;12.27;8.32;;;5.60;99.90;;;;;;4964779;28;21102;-28
2023/12/07 10:57:53;;;;;;;11.67;8.10;;;5.60;99.90;;;;;;4979424;28;20267;-29
2023/12/07 11:00:23;;;;;;;10.77;8.05;;;5.60;99.90;;;;;;4978874;28;20560;-29
2023/12/07 11:02:52;;;;;;;13.32;8.85;;;5.60;99.80;;;;;;4979685;28;20205;-29
2023/12/07 11:05:18;;;;;;;12.10;9.47;;;5.60;99.80;;;;;;4960944;28;20198;-29
2023/12/07 11:07:55;;;;;;;10.68;8.63;;;5.60;99.80;;;;;;4979210;28;20445;-28
2023/12/07 11:10:30;;;;;;;10.70;7.95;;;5.60;99.70;;;;;;4960518;28;20623;-29
2023/12/07 11:13:14;;;;;;;11.57;8.20;;;5.60;99.70;;;;;;4979367;28;20216;-28
2023/12/07 11:15:41;;;;;;;10.33;8.90;;;5.60;99.70;;;;;;4974823;28;20743;-29
2023/12/07 11:18:07;;;;;;;11.50;8.55;;;5.60;99.80;;;;;;4978887;28;20512;-29
2023/12/07 11:20:40;;;;;;;9.80;8.07;;;5.60;99.80;;;;;;4960567;28;20227;-28
2023/12/07 11:23:10;;;;;;;11.13;8.88;;;5.70;99.80;;;;;;4978604;28;20206;-28
2023/12/07 11:25:37;;;;;;;10.30;8.93;;;5.70;99.70;;;;;;4943980;28;20298;-28
2023/12/07 11:28:07;;;;;;;11.00;8.30;;;5.70;99.80;;;;;;4978590;28;20269;-28
2023/12/07 11:30:36;;;;;;;10.63;8.20;;;5.70;99.70;;;;;;4960632;28;20433;-28
2023/12/07 11:33:07;;;;;;;13.53;8.67;;;5.60;99.70;;;;;;4960658;28;20523;-28
2023/12/07 11:35:33;;;;;;;13.00;8.80;;;5.70;99.70;;;;;;4959998;28;20446;-28
2023/12/07 11:38:08;;;;;;;10.75;8.77;;;5.70;99.70;;;;;;4978718;28;20198;-28
2023/12/07 11:40:43;;;;;;;10.25;8.50;;;5.70;99.70;;;;;;4978495;28;20275;-28
2023/12/07 11:43:30;;;;;;;9.02;7.90;;;5.70;99.70;;;;;;4961013;28;20676;-28
2023/12/07 11:45:56;;;;;;;12.77;8.60;;;5.70;99.70;;;;;;4958726;28;20341;-28
2023/12/07 11:48:22;;;;;;;11.48;8.85;;;5.70;99.70;;;;;;4978379;28;20668;-28
2023/12/07 11:50:56;;;;;;;11.20;9.60;;;5.70;99.70;;;;;;4978038;28;20240;-28
2023/12/07 11:53:29;;;;;;;9.88;8.45;;;5.70;99.70;;;;;;4978577;28;20445;-28
2023/12/07 11:55:57;;;;;;;11.10;8.57;;;5.70;99.70;;;;;;4978636;28;20248;-29
2023/12/07 11:58:30;;;;;;;10.68;8.10;;;5.70;99.70;;;;;;4961243;28;21388;-28
2023/12/07 12:00:57;;;;;;;12.43;8.77;;;5.70;99.60;;;;;;4971011;28;20205;-28
2023/12/07 12:03:27;;;;;;;10.38;8.40;;;5.70;99.60;;;;;;4984492;28;20421;-29
2023/12/07 12:05:54;;;;;;;10.65;9.23;;;5.70;99.60;;;;;;4964783;28;20779;-29
2023/12/07 12:08:20;;;;;;;9.40;8.03;;;5.70;99.60;;;;;;4987161;28;20241;-28
2023/12/07 12:10:52;;;;;;;11.77;8.40;;;5.70;99.60;;;;;;4957785;28;20617;-28
2023/12/07 12:13:18;;;;;;;10.80;8.50;;;5.70;99.60;;;;;;4950977;28;20446;-28
2023/12/07 12:15:48;;;;;;;9.88;8.23;;;5.70;99.60;;;;;;4963428;28;20210;-28
2023/12/07 12:18:16;;;;;;;10.18;8.45;;;5.70;99.60;;;;;;4964370;28;20266;-29
2023/12/07 12:20:45;;;;;;;10.93;8.10;;;5.70;99.60;;;;;;4981977;28;20202;-29
2023/12/07 12:23:14;;;;;;;12.07;8.38;;;5.70;99.60;;;;;;4982046;28;20441;-29
2023/12/07 12:28:32;;;;;;;10.93;8.02;;;5.70;99.90;;;;;;4982063;28;20250;-30
2023/12/07 12:30:58;;;;;;;10.02;8.48;;;5.80;99.60;;;;;;5010184;28;20296;-30
2023/12/07 12:33:29;;;;;;;10.65;8.65;;;5.80;99.60;;;;;;4990964;28;20221;-27
2023/12/07 12:36:06;;;;;;;8.68;7.55;;;5.70;99.50;;;;;;4997159;28;20174;-27
2023/12/07 12:38:33;;;;;;;9.20;7.80;;;5.80;99.50;;;;;;4990579;28;20218;-28
2023/12/07 12:41:03;;;;;;;13.70;8.53;;;5.80;99.60;;;;;;5001676;28;20448;-26
2023/12/07 12:43:33;;;;;;;10.97;8.03;;;5.70;99.50;;;;;;4994743;28;20429;-29
2023/12/07 12:45:59;;;;;;;12.40;8.27;;;5.70;99.50;;;;;;4996531;28;20460;-32
2023/12/07 12:48:28;;;;;;;9.90;8.67;;;5.80;99.50;;;;;;4991968;28;20190;-27
2023/12/07 12:50:55;;;;;;;9.88;7.75;;;5.80;99.50;;;;;;4987432;28;20460;-28